createdAt,value
2018-11-12T00:00:48.129Z,966.60
2018-11-12T00:01:48.124Z,966.56
2018-11-12T00:02:48.115Z,966.53
2018-11-12T00:03:48.095Z,966.54
2018-11-12T00:04:48.090Z,966.52
2018-11-12T00:05:48.075Z,966.52
2018-11-12T00:06:48.092Z,966.57
2018-11-12T00:07:48.063Z,966.51
2018-11-12T00:08:48.052Z,966.60
2018-11-12T00:09:48.038Z,966.65
2018-11-12T00:10:48.021Z,966.66
2018-11-12T00:11:48.029Z,966.64
2018-11-12T00:12:47.995Z,966.63
2018-11-12T00:13:47.996Z,966.69
2018-11-12T00:14:47.975Z,966.75
2018-11-12T00:15:47.963Z,966.73
2018-11-12T00:16:47.950Z,966.76
2018-11-12T00:17:47.956Z,966.75
2018-11-12T00:18:47.937Z,966.72
2018-11-12T00:19:47.925Z,966.72
2018-11-12T00:20:47.905Z,966.72
2018-11-12T00:21:47.992Z,966.76
2018-11-12T00:22:47.895Z,966.72
2018-11-12T00:23:47.873Z,966.74
2018-11-12T00:24:47.873Z,966.78
2018-11-12T00:25:47.862Z,966.73
2018-11-12T00:26:47.837Z,966.75
2018-11-12T00:27:47.854Z,966.76
2018-11-12T00:28:47.836Z,966.84
2018-11-12T00:29:47.807Z,966.77
2018-11-12T00:30:47.796Z,966.76
2018-11-12T00:31:47.797Z,966.74
2018-11-12T00:32:47.810Z,966.82
2018-11-12T00:33:47.772Z,966.79
2018-11-12T00:34:47.760Z,966.84
2018-11-12T00:35:47.746Z,966.95
2018-11-12T00:36:47.733Z,966.92
2018-11-12T00:37:47.738Z,967.03
2018-11-12T00:38:47.707Z,966.98
2018-11-12T00:39:47.698Z,967.07
2018-11-12T00:40:47.682Z,967.04
2018-11-12T00:41:47.671Z,966.96
2018-11-12T00:42:47.680Z,966.99
2018-11-12T00:43:47.671Z,967.02
2018-11-12T00:44:47.658Z,967.04
2018-11-12T00:45:47.644Z,967.03
2018-11-12T00:46:47.615Z,967.09
2018-11-12T00:47:47.614Z,967.14
2018-11-12T00:48:47.610Z,967.12
2018-11-12T00:49:47.583Z,967.05
2018-11-12T00:50:47.583Z,967.12
2018-11-12T00:51:47.563Z,967.02
2018-11-12T00:52:47.546Z,967.06
2018-11-12T00:53:47.577Z,967.00
2018-11-12T00:54:47.552Z,966.99
2018-11-12T00:55:47.514Z,967.02
2018-11-12T00:56:47.504Z,967.00
2018-11-12T00:57:47.504Z,966.98
2018-11-12T00:58:47.508Z,966.93
2018-11-12T00:59:47.509Z,966.95
2018-11-12T01:00:47.479Z,966.90
2018-11-12T01:01:47.482Z,966.91
2018-11-12T01:02:47.446Z,966.91
2018-11-12T01:03:47.446Z,966.91
2018-11-12T01:04:47.457Z,966.97
2018-11-12T01:05:47.411Z,966.96
2018-11-12T01:06:47.401Z,966.94
2018-11-12T01:07:47.386Z,966.89
2018-11-12T01:08:47.369Z,966.92
2018-11-12T01:09:47.381Z,966.98
2018-11-12T01:10:47.354Z,967.02
2018-11-12T01:11:47.338Z,966.94
2018-11-12T01:12:47.326Z,966.91
2018-11-12T01:13:47.311Z,966.83
2018-11-12T01:14:47.318Z,966.82
2018-11-12T01:15:47.300Z,966.77
2018-11-12T01:16:47.290Z,966.80
2018-11-12T01:17:47.276Z,966.84
2018-11-12T01:18:47.271Z,966.82
2018-11-12T01:19:47.278Z,966.87
2018-11-12T01:20:47.245Z,966.91
2018-11-12T01:21:47.238Z,966.94
2018-11-12T01:22:47.219Z,966.90
2018-11-12T01:23:47.200Z,966.93
2018-11-12T01:24:47.194Z,966.96
2018-11-12T01:25:47.190Z,966.93
2018-11-12T01:26:47.167Z,966.97
2018-11-12T01:27:47.160Z,966.96
2018-11-12T01:28:47.151Z,966.97
2018-11-12T01:29:47.135Z,966.92
2018-11-12T01:30:47.188Z,966.85
2018-11-12T01:31:47.145Z,966.89
2018-11-12T01:32:47.107Z,966.86
2018-11-12T01:33:47.097Z,966.90
2018-11-12T01:34:47.090Z,966.91
2018-11-12T01:35:47.072Z,966.86
2018-11-12T01:36:47.063Z,966.88
2018-11-12T01:37:47.041Z,966.89
2018-11-12T01:38:47.036Z,966.86
2018-11-12T01:39:47.028Z,966.90
2018-11-12T01:40:47.011Z,966.89
2018-11-12T01:41:47.035Z,966.89
2018-11-12T01:42:47.007Z,966.82
2018-11-12T01:43:46.976Z,966.87
2018-11-12T01:44:46.981Z,966.84
2018-11-12T01:45:46.960Z,966.85
2018-11-12T01:46:46.972Z,966.83
2018-11-12T01:47:46.943Z,966.84
2018-11-12T01:48:46.927Z,966.85
2018-11-12T01:49:46.911Z,966.84
2018-11-12T01:50:46.911Z,966.82
2018-11-12T01:51:46.911Z,966.82
2018-11-12T01:52:46.898Z,966.82
2018-11-12T01:53:46.876Z,966.85
2018-11-12T01:54:46.859Z,966.81
2018-11-12T01:55:46.848Z,966.82
2018-11-12T01:56:46.838Z,966.90
2018-11-12T01:57:46.833Z,966.86
2018-11-12T01:58:46.811Z,966.82
2018-11-12T01:59:46.806Z,966.89
2018-11-12T02:00:46.794Z,966.90
2018-11-12T02:01:46.905Z,966.91
2018-11-12T02:02:46.782Z,966.91
2018-11-12T02:03:46.760Z,966.93
2018-11-12T02:04:46.765Z,966.89
2018-11-12T02:05:46.737Z,966.95
2018-11-12T02:06:46.732Z,966.91
2018-11-12T02:07:46.748Z,966.89
2018-11-12T02:08:46.727Z,966.91
2018-11-12T02:09:46.690Z,966.90
2018-11-12T02:10:46.705Z,966.91
2018-11-12T02:11:46.667Z,966.93
2018-11-12T02:12:46.666Z,966.98
2018-11-12T02:13:46.657Z,966.89
2018-11-12T02:14:46.646Z,966.90
2018-11-12T02:15:46.635Z,966.89
2018-11-12T02:16:46.620Z,966.85
2018-11-12T02:17:46.599Z,966.80
2018-11-12T02:18:46.597Z,966.81
2018-11-12T02:19:46.579Z,966.77
2018-11-12T02:20:46.575Z,966.84
2018-11-12T02:21:46.561Z,966.86
2018-11-12T02:22:46.592Z,966.89
2018-11-12T02:23:46.554Z,966.96
2018-11-12T02:24:46.541Z,966.97
2018-11-12T02:25:46.510Z,966.87
2018-11-12T02:26:46.503Z,966.95
2018-11-12T02:27:46.500Z,966.85
2018-11-12T02:28:46.496Z,966.88
2018-11-12T02:29:46.470Z,966.90
2018-11-12T02:30:46.454Z,966.85
2018-11-12T02:31:46.443Z,966.83
2018-11-12T02:32:46.433Z,966.94
2018-11-12T02:33:46.423Z,966.92
2018-11-12T02:34:46.428Z,966.89
2018-11-12T02:35:46.399Z,966.84
2018-11-12T02:36:46.404Z,966.85
2018-11-12T02:37:46.414Z,966.81
2018-11-12T02:38:46.389Z,966.81
2018-11-12T02:39:46.389Z,966.78
2018-11-12T02:40:46.363Z,966.78
2018-11-12T02:41:46.333Z,966.79
2018-11-12T02:42:46.346Z,966.78
2018-11-12T02:43:46.327Z,966.73
2018-11-12T02:44:46.324Z,966.77
2018-11-12T02:45:46.288Z,966.81
2018-11-12T02:46:46.286Z,966.80
2018-11-12T02:47:46.300Z,966.79
2018-11-12T02:48:46.254Z,966.76
2018-11-12T02:49:46.246Z,966.79
2018-11-12T02:50:46.267Z,966.78
2018-11-12T02:51:46.221Z,966.70
2018-11-12T02:52:46.212Z,966.75
2018-11-12T02:53:46.196Z,966.70
2018-11-12T02:54:46.187Z,966.71
2018-11-12T02:55:46.212Z,966.82
2018-11-12T02:56:46.173Z,966.76
2018-11-12T02:57:46.168Z,966.68
2018-11-12T02:58:46.149Z,966.70
2018-11-12T02:59:46.138Z,966.69
2018-11-12T03:00:46.165Z,966.73
2018-11-12T03:01:46.114Z,966.67
2018-11-12T03:02:46.122Z,966.72
2018-11-12T03:03:46.102Z,966.70
2018-11-12T03:04:46.090Z,966.73
2018-11-12T03:05:46.065Z,966.72
2018-11-12T03:06:46.071Z,966.74
2018-11-12T03:07:46.128Z,966.71
2018-11-12T03:08:46.056Z,966.71
2018-11-12T03:09:46.033Z,966.68
2018-11-12T03:10:46.017Z,966.76
2018-11-12T03:11:46.015Z,966.67
2018-11-12T03:12:45.988Z,966.67
2018-11-12T03:13:45.981Z,966.69
2018-11-12T03:14:45.976Z,966.74
2018-11-12T03:15:45.955Z,966.74
2018-11-12T03:16:45.963Z,966.73
2018-11-12T03:17:45.941Z,966.76
2018-11-12T03:18:45.927Z,966.75
2018-11-12T03:19:45.937Z,966.74
2018-11-12T03:20:45.911Z,966.77
2018-11-12T03:21:45.902Z,966.74
2018-11-12T03:22:45.926Z,966.79
2018-11-12T03:23:45.872Z,966.78
2018-11-12T03:24:45.862Z,966.75
2018-11-12T03:25:45.855Z,966.78
2018-11-12T03:26:45.847Z,966.75
2018-11-12T03:27:45.907Z,966.79
2018-11-12T03:28:45.815Z,966.77
2018-11-12T03:29:45.812Z,966.79
2018-11-12T03:30:45.795Z,966.80
2018-11-12T03:31:45.807Z,966.82
2018-11-12T03:32:45.793Z,966.75
2018-11-12T03:33:45.756Z,966.81
2018-11-12T03:34:45.755Z,966.81
2018-11-12T03:35:45.733Z,966.84
2018-11-12T03:36:45.721Z,966.89
2018-11-12T03:37:45.736Z,966.94
2018-11-12T03:38:45.701Z,967.05
2018-11-12T03:39:45.760Z,967.02
2018-11-12T03:40:45.683Z,966.97
2018-11-12T03:41:45.669Z,967.03
2018-11-12T03:42:45.661Z,967.00
2018-11-12T03:43:45.656Z,966.95
2018-11-12T03:44:45.633Z,966.95
2018-11-12T03:45:45.643Z,966.94
2018-11-12T03:46:45.618Z,966.99
2018-11-12T03:47:45.630Z,966.97
2018-11-12T03:48:45.624Z,967.06
2018-11-12T03:49:45.579Z,967.04
2018-11-12T03:50:45.564Z,967.00
2018-11-12T03:51:45.573Z,966.90
2018-11-12T03:52:45.544Z,966.89
2018-11-12T03:53:45.568Z,966.90
2018-11-12T03:54:45.567Z,966.98
2018-11-12T03:55:45.523Z,966.98
2018-11-12T03:56:45.499Z,967.04
2018-11-12T03:57:45.495Z,966.96
2018-11-12T03:58:45.506Z,967.06
2018-11-12T03:59:45.477Z,967.04
2018-11-12T04:00:45.454Z,967.04
2018-11-12T04:01:45.440Z,967.07
2018-11-12T04:02:45.437Z,967.07
2018-11-12T04:03:45.420Z,967.14
2018-11-12T04:04:45.429Z,967.16
2018-11-12T04:05:45.407Z,967.14
2018-11-12T04:06:45.387Z,967.13
2018-11-12T04:07:45.382Z,967.03
2018-11-12T04:08:45.380Z,967.04
2018-11-12T04:09:45.363Z,967.01
2018-11-12T04:10:45.364Z,967.03
2018-11-12T04:11:45.337Z,967.05
2018-11-12T04:12:45.321Z,967.04
2018-11-12T04:13:45.313Z,967.04
2018-11-12T04:14:45.316Z,967.04
2018-11-12T04:15:45.295Z,967.00
2018-11-12T04:16:45.281Z,967.02
2018-11-12T04:17:45.269Z,966.98
2018-11-12T04:18:45.260Z,967.02
2018-11-12T04:19:45.243Z,967.01
2018-11-12T04:20:45.247Z,966.98
2018-11-12T04:21:45.225Z,967.00
2018-11-12T04:22:45.210Z,967.04
2018-11-12T04:23:45.206Z,967.05
2018-11-12T04:24:45.194Z,967.04
2018-11-12T04:25:45.190Z,967.07
2018-11-12T04:26:45.159Z,967.03
2018-11-12T04:27:45.151Z,967.03
2018-11-12T04:28:45.168Z,967.03
2018-11-12T04:29:45.150Z,967.00
2018-11-12T04:30:45.180Z,967.03
2018-11-12T04:31:45.140Z,967.00
2018-11-12T04:32:45.091Z,966.97
2018-11-12T04:33:45.092Z,966.95
2018-11-12T04:34:45.081Z,966.88
2018-11-12T04:35:45.059Z,966.93
2018-11-12T04:36:45.063Z,966.89
2018-11-12T04:37:45.044Z,966.90
2018-11-12T04:38:45.037Z,966.95
2018-11-12T04:39:45.015Z,966.96
2018-11-12T04:40:45.011Z,966.93
2018-11-12T04:41:45.004Z,966.95
2018-11-12T04:42:44.987Z,966.93
2018-11-12T04:43:44.975Z,966.94
2018-11-12T04:44:44.957Z,966.91
2018-11-12T04:45:45.020Z,966.85
2018-11-12T04:46:44.960Z,966.90
2018-11-12T04:47:44.966Z,966.85
2018-11-12T04:48:44.918Z,966.86
2018-11-12T04:49:44.907Z,966.86
2018-11-12T04:50:44.897Z,966.90
2018-11-12T04:51:44.890Z,966.88
2018-11-12T04:52:44.891Z,966.91
2018-11-12T04:53:44.954Z,966.89
2018-11-12T04:54:44.850Z,966.86
2018-11-12T04:55:44.836Z,966.88
2018-11-12T04:56:44.839Z,966.90
2018-11-12T04:57:44.833Z,966.92
2018-11-12T04:58:44.806Z,966.92
2018-11-12T04:59:44.791Z,966.97
2018-11-12T05:00:44.795Z,966.99
2018-11-12T05:01:44.827Z,967.02
2018-11-12T05:02:44.778Z,966.99
2018-11-12T05:03:44.746Z,967.03
2018-11-12T05:04:44.740Z,967.02
2018-11-12T05:05:44.727Z,967.04
2018-11-12T05:06:44.721Z,967.03
2018-11-12T05:07:51.793Z,967.05
2018-11-12T05:08:44.690Z,967.02
2018-11-12T05:09:44.682Z,967.01
2018-11-12T05:10:44.672Z,966.99
2018-11-12T05:11:44.662Z,966.97
2018-11-12T05:12:44.659Z,966.96
2018-11-12T05:13:44.660Z,966.97
2018-11-12T05:14:44.627Z,966.89
2018-11-12T05:15:44.611Z,966.94
2018-11-12T05:16:44.646Z,966.89
2018-11-12T05:17:44.589Z,966.87
2018-11-12T05:18:44.586Z,966.90
2018-11-12T05:19:44.569Z,966.86
2018-11-12T05:20:44.556Z,966.88
2018-11-12T05:21:44.562Z,966.80
2018-11-12T05:22:44.538Z,966.81
2018-11-12T05:23:44.562Z,966.76
2018-11-12T05:24:44.522Z,966.83
2018-11-12T05:25:44.499Z,966.78
2018-11-12T05:26:44.489Z,966.84
2018-11-12T05:27:44.483Z,966.81
2018-11-12T05:28:44.471Z,966.83
2018-11-12T05:29:44.469Z,966.82
2018-11-12T05:30:44.452Z,966.85
2018-11-12T05:31:44.439Z,966.87
2018-11-12T05:32:44.424Z,966.90
2018-11-12T05:33:44.414Z,966.92
2018-11-12T05:34:44.406Z,966.85
2018-11-12T05:35:44.386Z,966.83
2018-11-12T05:36:44.377Z,966.82
2018-11-12T05:37:51.529Z,966.86
2018-11-12T05:38:44.356Z,966.86
2018-11-12T05:39:44.357Z,966.95
2018-11-12T05:40:44.332Z,966.93
2018-11-12T05:41:44.321Z,966.96
2018-11-12T05:42:51.400Z,966.90
2018-11-12T05:43:44.303Z,966.91
2018-11-12T05:44:44.319Z,966.88
2018-11-12T05:45:44.286Z,966.89
2018-11-12T05:46:44.272Z,966.91
2018-11-12T05:47:44.256Z,966.82
2018-11-12T05:48:44.245Z,966.81
2018-11-12T05:49:44.231Z,966.80
2018-11-12T05:50:44.235Z,966.86
2018-11-12T05:51:44.274Z,966.85
2018-11-12T05:52:44.205Z,966.83
2018-11-12T05:53:44.195Z,966.89
2018-11-12T05:54:44.176Z,966.97
2018-11-12T05:55:44.185Z,966.96
2018-11-12T05:56:44.152Z,966.97
2018-11-12T05:57:44.145Z,966.97
2018-11-12T05:58:44.191Z,966.95
2018-11-12T05:59:44.127Z,966.89
2018-11-12T06:00:44.125Z,966.93
2018-11-12T06:01:44.110Z,966.94
2018-11-12T06:02:44.089Z,966.99
2018-11-12T06:03:44.078Z,966.97
2018-11-12T06:04:44.156Z,966.96
2018-11-12T06:05:44.052Z,967.01
2018-11-12T06:06:44.057Z,967.00
2018-11-12T06:07:44.034Z,966.96
2018-11-12T06:08:44.020Z,967.01
2018-11-12T06:09:44.010Z,967.00
2018-11-12T06:10:44.001Z,966.96
2018-11-12T06:11:43.999Z,966.95
2018-11-12T06:12:43.977Z,966.98
2018-11-12T06:13:43.961Z,966.94
2018-11-12T06:14:43.962Z,966.99
2018-11-12T06:15:43.943Z,966.93
2018-11-12T06:16:43.934Z,966.99
2018-11-12T06:17:43.931Z,967.03
2018-11-12T06:18:43.909Z,966.98
2018-11-12T06:19:43.900Z,967.05
2018-11-12T06:20:43.908Z,967.04
2018-11-12T06:21:50.925Z,966.99
2018-11-12T06:22:43.926Z,967.05
2018-11-12T06:23:43.864Z,967.08
2018-11-12T06:24:43.846Z,967.02
2018-11-12T06:25:43.835Z,967.08
2018-11-12T06:26:43.820Z,967.09
2018-11-12T06:27:43.841Z,967.13
2018-11-12T06:28:43.800Z,967.17
2018-11-12T06:29:43.790Z,967.22
2018-11-12T06:30:43.772Z,967.24
2018-11-12T06:31:43.764Z,967.34
2018-11-12T06:32:43.757Z,967.34
2018-11-12T06:33:43.746Z,967.43
2018-11-12T06:34:43.729Z,967.43
2018-11-12T06:35:43.720Z,967.50
2018-11-12T06:36:43.782Z,967.46
2018-11-12T06:37:43.704Z,967.51
2018-11-12T06:38:43.690Z,967.50
2018-11-12T06:39:43.674Z,967.50
2018-11-12T06:40:43.662Z,967.59
2018-11-12T06:41:43.654Z,967.55
2018-11-12T06:42:43.797Z,967.57
2018-11-12T06:43:43.649Z,967.58
2018-11-12T06:44:43.617Z,967.64
2018-11-12T06:45:43.608Z,967.56
2018-11-12T06:46:43.597Z,967.60
2018-11-12T06:47:43.588Z,967.54
2018-11-12T06:48:43.584Z,967.52
2018-11-12T06:49:43.565Z,967.47
2018-11-12T06:50:43.559Z,967.53
2018-11-12T06:51:43.540Z,967.54
2018-11-12T06:52:43.588Z,967.53
2018-11-12T06:53:43.522Z,967.50
2018-11-12T06:54:43.513Z,967.49
2018-11-12T06:55:43.501Z,967.46
2018-11-12T06:56:43.489Z,967.39
2018-11-12T06:57:43.472Z,967.41
2018-11-12T06:58:43.470Z,967.39
2018-11-12T06:59:43.456Z,967.40
2018-11-12T07:00:43.489Z,967.35
2018-11-12T07:01:43.436Z,967.28
2018-11-12T07:02:43.427Z,967.32
2018-11-12T07:03:43.405Z,967.35
2018-11-12T07:04:43.423Z,967.39
2018-11-12T07:05:43.403Z,967.39
2018-11-12T07:06:43.393Z,967.39
2018-11-12T07:07:43.365Z,967.38
2018-11-12T07:08:43.352Z,967.38
2018-11-12T07:09:43.336Z,967.37
2018-11-12T07:10:43.349Z,967.34
2018-11-12T07:11:43.340Z,967.35
2018-11-12T07:12:43.312Z,967.36
2018-11-12T07:13:43.304Z,967.39
2018-11-12T07:14:43.282Z,967.38
2018-11-12T07:15:43.284Z,967.33
2018-11-12T07:16:43.266Z,967.31
2018-11-12T07:17:43.274Z,967.33
2018-11-12T07:18:43.445Z,967.32
2018-11-12T07:19:43.225Z,967.28
2018-11-12T07:20:43.240Z,967.22
2018-11-12T07:21:43.214Z,967.24
2018-11-12T07:22:43.195Z,967.18
2018-11-12T07:23:43.184Z,967.18
2018-11-12T07:24:43.170Z,967.17
2018-11-12T07:25:43.159Z,967.22
2018-11-12T07:26:43.158Z,967.19
2018-11-12T07:27:43.136Z,967.21
2018-11-12T07:28:43.125Z,967.17
2018-11-12T07:29:43.115Z,967.16
2018-11-12T07:30:43.114Z,967.12
2018-11-12T07:31:43.100Z,967.20
2018-11-12T07:32:43.081Z,967.19
2018-11-12T07:33:43.071Z,967.22
2018-11-12T07:34:43.077Z,967.19
2018-11-12T07:35:43.047Z,967.18
2018-11-12T07:36:43.054Z,967.20
2018-11-12T07:37:43.022Z,967.21
2018-11-12T07:38:43.013Z,967.15
2018-11-12T07:39:43.005Z,967.18
2018-11-12T07:40:42.993Z,967.16
2018-11-12T07:41:42.979Z,967.16
2018-11-12T07:42:42.985Z,967.22
2018-11-12T07:43:42.959Z,967.24
2018-11-12T07:44:42.949Z,967.19
2018-11-12T07:45:42.945Z,967.20
2018-11-12T07:46:42.930Z,967.22
2018-11-12T07:47:42.973Z,967.22
2018-11-12T07:48:43.007Z,967.16
2018-11-12T07:49:42.898Z,967.18
2018-11-12T07:50:42.881Z,967.16
2018-11-12T07:51:49.909Z,967.16
2018-11-12T07:52:50.010Z,967.09
2018-11-12T07:53:42.900Z,966.98
2018-11-12T07:54:42.852Z,967.01
2018-11-12T07:55:42.821Z,966.97
2018-11-12T07:56:42.816Z,966.99
2018-11-12T07:57:42.808Z,967.05
2018-11-12T07:58:42.800Z,967.06
2018-11-12T07:59:42.776Z,967.02
2018-11-12T08:00:42.767Z,967.02
2018-11-12T08:01:42.752Z,967.00
2018-11-12T08:02:42.765Z,967.06
2018-11-12T08:03:42.846Z,967.06
2018-11-12T08:04:42.744Z,967.00
2018-11-12T08:05:42.710Z,967.04
2018-11-12T08:06:42.699Z,967.06
2018-11-12T08:07:42.695Z,967.08
2018-11-12T08:08:42.702Z,967.13
2018-11-12T08:09:42.740Z,967.12
2018-11-12T08:10:42.689Z,967.15
2018-11-12T08:11:42.671Z,967.16
2018-11-12T08:12:42.632Z,967.13
2018-11-12T08:13:42.620Z,967.08
2018-11-12T08:14:42.828Z,967.18
2018-11-12T08:15:42.601Z,967.11
2018-11-12T08:16:42.595Z,967.13
2018-11-12T08:17:42.651Z,967.22
2018-11-12T08:18:42.618Z,967.24
2018-11-12T08:19:42.558Z,967.22
2018-11-12T08:20:42.560Z,967.25
2018-11-12T08:21:42.608Z,967.23
2018-11-12T08:22:42.525Z,967.20
2018-11-12T08:23:42.508Z,967.26
2018-11-12T08:24:42.566Z,967.25
2018-11-12T08:25:42.513Z,967.19
2018-11-12T08:26:42.517Z,967.28
2018-11-12T08:27:42.465Z,967.26
2018-11-12T08:28:42.460Z,967.25
2018-11-12T08:29:42.571Z,967.26
2018-11-12T08:30:42.431Z,967.22
2018-11-12T08:31:50.046Z,967.23
2018-11-12T08:32:42.411Z,967.23
2018-11-12T08:33:42.398Z,967.24
2018-11-12T08:34:42.387Z,967.26
2018-11-12T08:35:42.399Z,967.30
2018-11-12T08:36:42.445Z,967.30
2018-11-12T08:37:42.357Z,967.31
2018-11-12T08:38:42.344Z,967.29
2018-11-12T08:39:42.587Z,967.26
2018-11-12T08:40:42.472Z,967.23
2018-11-12T08:41:42.305Z,967.15
2018-11-12T08:42:42.313Z,967.08
2018-11-12T08:43:42.288Z,967.10
2018-11-12T08:44:42.272Z,967.11
2018-11-12T08:45:42.264Z,967.18
2018-11-12T08:46:42.257Z,967.22
2018-11-12T08:47:42.262Z,967.25
2018-11-12T08:48:42.271Z,967.25
2018-11-12T08:49:42.308Z,967.31
2018-11-12T08:50:42.213Z,967.26
2018-11-12T08:51:42.196Z,967.26
2018-11-12T08:52:42.186Z,967.26
2018-11-12T08:53:42.179Z,967.27
2018-11-12T08:54:42.468Z,967.28
2018-11-12T08:55:42.209Z,967.30
2018-11-12T08:56:42.136Z,967.26
2018-11-12T08:57:42.135Z,967.29
2018-11-12T08:58:42.164Z,967.26
2018-11-12T08:59:42.221Z,967.37
2018-11-12T09:00:42.174Z,967.32
2018-11-12T09:01:42.094Z,967.40
2018-11-12T09:02:42.071Z,967.41
2018-11-12T09:03:42.104Z,967.40
2018-11-12T09:04:42.047Z,967.42
2018-11-12T09:05:42.104Z,967.39
2018-11-12T09:06:42.030Z,967.40
2018-11-12T09:07:42.017Z,967.42
2018-11-12T09:08:42.002Z,967.38
2018-11-12T09:09:42.013Z,967.35
2018-11-12T09:10:41.984Z,967.39
2018-11-12T09:11:41.969Z,967.36
2018-11-12T09:12:41.960Z,967.44
2018-11-12T09:13:42.476Z,967.42
2018-11-12T09:14:41.953Z,967.41
2018-11-12T09:15:42.024Z,967.37
2018-11-12T09:16:41.987Z,967.28
2018-11-12T09:17:41.930Z,967.32
2018-11-12T09:18:41.895Z,967.31
2018-11-12T09:19:41.916Z,967.31
2018-11-12T09:20:41.877Z,967.32
2018-11-12T09:21:41.860Z,967.28
2018-11-12T09:22:41.848Z,967.34
2018-11-12T09:23:41.848Z,967.33
2018-11-12T09:24:41.828Z,967.30
2018-11-12T09:25:41.839Z,967.33
2018-11-12T09:26:41.801Z,967.28
2018-11-12T09:27:41.826Z,967.24
2018-11-12T09:28:41.782Z,967.22
2018-11-12T09:29:41.876Z,967.25
2018-11-12T09:30:43.031Z,967.17
2018-11-12T09:31:41.755Z,967.27
2018-11-12T09:32:42.092Z,967.23
2018-11-12T09:33:41.729Z,967.19
2018-11-12T09:34:41.719Z,967.25
2018-11-12T09:35:41.722Z,967.27
2018-11-12T09:36:41.742Z,967.29
2018-11-12T09:37:41.686Z,967.28
2018-11-12T09:38:41.788Z,967.31
2018-11-12T09:39:41.669Z,967.30
2018-11-12T09:40:41.653Z,967.30
2018-11-12T09:41:41.641Z,967.29
2018-11-12T09:42:41.627Z,967.32
2018-11-12T09:43:41.635Z,967.35
2018-11-12T09:44:41.605Z,967.31
2018-11-12T09:45:41.602Z,967.35
2018-11-12T09:46:41.580Z,967.35
2018-11-12T09:47:41.596Z,967.36
2018-11-12T09:48:41.581Z,967.39
2018-11-12T09:49:41.551Z,967.44
2018-11-12T09:50:41.540Z,967.46
2018-11-12T09:51:41.526Z,967.49
2018-11-12T09:52:41.537Z,967.53
2018-11-12T09:53:41.626Z,967.47
2018-11-12T09:54:41.599Z,967.48
2018-11-12T09:55:41.586Z,967.52
2018-11-12T09:56:41.474Z,967.55
2018-11-12T09:57:41.463Z,967.50
2018-11-12T09:58:41.449Z,967.52
2018-11-12T09:59:41.450Z,967.46
2018-11-12T10:00:41.741Z,967.49
2018-11-12T10:01:42.054Z,967.48
2018-11-12T10:02:42.553Z,967.47
2018-11-12T10:03:42.616Z,967.53
2018-11-12T10:04:43.237Z,967.50
2018-11-12T10:05:42.553Z,967.48
2018-11-12T10:06:42.821Z,967.51
2018-11-12T10:07:44.118Z,967.45
2018-11-12T10:08:42.685Z,967.43
2018-11-12T10:09:44.247Z,967.44
2018-11-12T10:10:43.652Z,967.40
2018-11-12T10:11:43.552Z,967.40
2018-11-12T10:12:44.578Z,967.43
2018-11-12T10:13:43.051Z,967.41
2018-11-12T10:14:44.007Z,967.42
2018-11-12T10:15:44.646Z,967.37
2018-11-12T10:16:43.082Z,967.37
2018-11-12T10:17:43.547Z,967.42
2018-11-12T10:18:41.285Z,967.36
2018-11-12T10:19:41.262Z,967.41
2018-11-12T10:20:48.297Z,967.41
2018-11-12T10:21:41.196Z,967.40
2018-11-12T10:22:41.181Z,967.50
2018-11-12T10:23:41.189Z,967.49
2018-11-12T10:24:41.162Z,967.43
2018-11-12T10:25:41.145Z,967.40
2018-11-12T10:26:41.150Z,967.43
2018-11-12T10:27:41.122Z,967.34
2018-11-12T10:28:41.112Z,967.37
2018-11-12T10:29:41.107Z,967.31
2018-11-12T10:30:41.131Z,967.27
2018-11-12T10:31:41.086Z,967.27
2018-11-12T10:32:41.068Z,967.20
2018-11-12T10:33:48.634Z,967.26
2018-11-12T10:34:41.064Z,967.24
2018-11-12T10:35:41.049Z,967.24
2018-11-12T10:36:41.025Z,967.26
2018-11-12T10:37:41.011Z,967.37
2018-11-12T10:38:41.001Z,967.38
2018-11-12T10:39:41.062Z,967.37
2018-11-12T10:40:41.006Z,967.47
2018-11-12T10:41:40.979Z,967.52
2018-11-12T10:42:40.989Z,967.46
2018-11-12T10:43:40.976Z,967.49
2018-11-12T10:44:40.945Z,967.50
2018-11-12T10:45:40.930Z,967.43
2018-11-12T10:46:40.910Z,967.42
2018-11-12T10:47:40.919Z,967.42
2018-11-12T10:48:40.964Z,967.39
2018-11-12T10:49:40.878Z,967.44
2018-11-12T10:50:40.876Z,967.44
2018-11-12T10:51:40.864Z,967.42
2018-11-12T10:52:40.852Z,967.42
2018-11-12T10:53:49.842Z,967.37
2018-11-12T10:54:40.839Z,967.33
2018-11-12T10:55:40.913Z,967.31
2018-11-12T10:56:40.809Z,967.26
2018-11-12T10:57:40.792Z,967.32
2018-11-12T10:58:40.869Z,967.31
2018-11-12T10:59:40.840Z,967.35
2018-11-12T11:00:40.823Z,967.34
2018-11-12T11:01:40.741Z,967.35
2018-11-12T11:02:40.740Z,967.35
2018-11-12T11:03:40.728Z,967.37
2018-11-12T11:04:40.710Z,967.35
2018-11-12T11:05:40.740Z,967.35
2018-11-12T11:06:40.789Z,967.31
2018-11-12T11:07:40.701Z,967.28
2018-11-12T11:08:40.674Z,967.31
2018-11-12T11:09:40.661Z,967.19
2018-11-12T11:10:40.674Z,967.20
2018-11-12T11:11:40.638Z,967.20
2018-11-12T11:12:40.618Z,967.14
2018-11-12T11:13:40.633Z,967.16
2018-11-12T11:14:40.656Z,967.11
2018-11-12T11:15:40.685Z,967.08
2018-11-12T11:16:40.579Z,967.13
2018-11-12T11:17:40.568Z,967.13
2018-11-12T11:18:40.550Z,967.16
2018-11-12T11:19:40.575Z,967.15
2018-11-12T11:20:40.562Z,967.16
2018-11-12T11:21:40.513Z,967.18
2018-11-12T11:22:40.507Z,967.13
2018-11-12T11:23:40.492Z,967.22
2018-11-12T11:24:40.497Z,967.19
2018-11-12T11:25:40.551Z,967.18
2018-11-12T11:26:40.574Z,967.13
2018-11-12T11:27:40.463Z,967.09
2018-11-12T11:28:40.480Z,967.06
2018-11-12T11:29:40.427Z,967.07
2018-11-12T11:30:40.427Z,967.03
2018-11-12T11:31:40.466Z,967.04
2018-11-12T11:32:40.396Z,967.04
2018-11-12T11:33:40.385Z,966.96
2018-11-12T11:34:40.377Z,966.91
2018-11-12T11:35:40.399Z,966.91
2018-11-12T11:36:40.356Z,966.86
2018-11-12T11:37:40.338Z,966.80
2018-11-12T11:38:40.325Z,966.73
2018-11-12T11:39:40.325Z,966.76
2018-11-12T11:40:40.339Z,966.74
2018-11-12T11:41:40.295Z,966.78
2018-11-12T11:42:40.284Z,966.77
2018-11-12T11:43:40.276Z,966.77
2018-11-12T11:44:40.262Z,966.75
2018-11-12T11:45:40.246Z,966.77
2018-11-12T11:46:40.244Z,966.80
2018-11-12T11:47:40.458Z,966.76
2018-11-12T11:48:40.221Z,966.82
2018-11-12T11:49:40.204Z,966.79
2018-11-12T11:50:40.228Z,966.80
2018-11-12T11:51:40.239Z,966.87
2018-11-12T11:52:40.164Z,966.89
2018-11-12T11:53:40.158Z,966.88
2018-11-12T11:54:40.173Z,966.91
2018-11-12T11:55:40.128Z,966.94
2018-11-12T11:56:40.315Z,966.96
2018-11-12T11:57:40.305Z,966.96
2018-11-12T11:58:40.097Z,966.98
2018-11-12T11:59:40.095Z,966.94
2018-11-12T12:00:40.095Z,967.00
2018-11-12T12:01:40.126Z,967.02
2018-11-12T12:02:40.092Z,967.13
2018-11-12T12:03:40.040Z,967.19
2018-11-12T12:04:40.039Z,967.06
2018-11-12T12:05:40.027Z,967.05
2018-11-12T12:06:40.013Z,966.99
2018-11-12T12:07:39.997Z,966.90
2018-11-12T12:08:40.036Z,966.86
2018-11-12T12:09:39.987Z,966.87
2018-11-12T12:10:40.001Z,966.87
2018-11-12T12:11:39.948Z,966.89
2018-11-12T12:12:39.946Z,966.78
2018-11-12T12:13:39.933Z,966.74
2018-11-12T12:14:39.923Z,966.77
2018-11-12T12:15:39.910Z,966.71
2018-11-12T12:16:39.962Z,966.68
2018-11-12T12:17:39.986Z,966.66
2018-11-12T12:18:39.980Z,966.67
2018-11-12T12:19:39.867Z,966.71
2018-11-12T12:20:39.892Z,966.73
2018-11-12T12:21:39.849Z,966.72
2018-11-12T12:22:39.833Z,966.72
2018-11-12T12:23:39.810Z,966.79
2018-11-12T12:24:40.080Z,966.71
2018-11-12T12:25:39.963Z,966.77
2018-11-12T12:26:39.783Z,966.71
2018-11-12T12:27:39.768Z,966.71
2018-11-12T12:28:39.766Z,966.82